sensor_id;sensor_type;location;lat;lon;timestamp;P1;durP1;ratioP1;P2;durP2;ratioP2
49824;SDS011;35714;55.708;37.478;2022-08-21T00:01:16;34.70;;;23.52;;
49824;SDS011;35714;55.708;37.478;2022-08-21T00:03:43;41.50;;;25.48;;
49824;SDS011;35714;55.708;37.478;2022-08-21T00:06:09;38.13;;;23.30;;
49824;SDS011;35714;55.708;37.478;2022-08-21T00:08:34;42.67;;;25.80;;
49824;SDS011;35714;55.708;37.478;2022-08-21T00:11:00;36.00;;;24.05;;
49824;SDS011;35714;55.708;37.478;2022-08-21T00:13:26;33.00;;;22.23;;
49824;SDS011;35714;55.708;37.478;2022-08-21T00:15:51;37.67;;;24.77;;
49824;SDS011;35714;55.708;37.478;2022-08-21T00:18:17;39.85;;;25.48;;
49824;SDS011;35714;55.708;37.478;2022-08-21T00:20:43;38.22;;;23.50;;
49824;SDS011;35714;55.708;37.478;2022-08-21T00:23:09;39.58;;;28.17;;
49824;SDS011;35714;55.708;37.478;2022-08-21T00:25:35;44.97;;;26.08;;
49824;SDS011;35714;55.708;37.478;2022-08-21T00:28:01;39.50;;;26.25;;
49824;SDS011;35714;55.708;37.478;2022-08-21T00:30:27;40.92;;;26.40;;
49824;SDS011;35714;55.708;37.478;2022-08-21T00:32:54;38.15;;;25.60;;
49824;SDS011;35714;55.708;37.478;2022-08-21T00:35:22;36.35;;;22.98;;
49824;SDS011;35714;55.708;37.478;2022-08-21T00:37:48;42.30;;;26.95;;
49824;SDS011;35714;55.708;37.478;2022-08-21T00:40:15;35.72;;;24.90;;
49824;SDS011;35714;55.708;37.478;2022-08-21T00:42:41;40.50;;;26.83;;
49824;SDS011;35714;55.708;37.478;2022-08-21T00:45:06;41.75;;;26.27;;
49824;SDS011;35714;55.708;37.478;2022-08-21T00:47:32;39.42;;;26.83;;
49824;SDS011;35714;55.708;37.478;2022-08-21T00:49:58;39.42;;;26.15;;
49824;SDS011;35714;55.708;37.478;2022-08-21T00:52:25;45.45;;;26.17;;
49824;SDS011;35714;55.708;37.478;2022-08-21T00:54:51;42.60;;;25.67;;
49824;SDS011;35714;55.708;37.478;2022-08-21T00:57:22;37.97;;;25.65;;
49824;SDS011;35714;55.708;37.478;2022-08-21T00:59:49;37.72;;;24.77;;
49824;SDS011;35714;55.708;37.478;2022-08-21T01:02:16;43.60;;;27.02;;
49824;SDS011;35714;55.708;37.478;2022-08-21T01:04:42;41.72;;;27.33;;
49824;SDS011;35714;55.708;37.478;2022-08-21T01:07:08;42.75;;;27.75;;
49824;SDS011;35714;55.708;37.478;2022-08-21T01:09:34;43.65;;;27.60;;
49824;SDS011;35714;55.708;37.478;2022-08-21T01:12:00;42.10;;;26.83;;
49824;SDS011;35714;55.708;37.478;2022-08-21T01:14:25;46.35;;;29.08;;
49824;SDS011;35714;55.708;37.478;2022-08-21T01:16:51;41.83;;;27.45;;
49824;SDS011;35714;55.708;37.478;2022-08-21T01:19:20;46.65;;;28.85;;
49824;SDS011;35714;55.708;37.478;2022-08-21T01:21:45;47.70;;;29.30;;
49824;SDS011;35714;55.708;37.478;2022-08-21T01:24:12;42.97;;;26.23;;
49824;SDS011;35714;55.708;37.478;2022-08-21T01:26:38;42.00;;;26.17;;
49824;SDS011;35714;55.708;37.478;2022-08-21T01:31:48;37.42;;;25.38;;
49824;SDS011;35714;55.708;37.478;2022-08-21T01:34:13;47.40;;;29.83;;
49824;SDS011;35714;55.708;37.478;2022-08-21T01:36:40;36.88;;;25.75;;
49824;SDS011;35714;55.708;37.478;2022-08-21T01:39:06;40.75;;;26.48;;
49824;SDS011;35714;55.708;37.478;2022-08-21T01:41:32;39.35;;;26.00;;
49824;SDS011;35714;55.708;37.478;2022-08-21T01:43:57;37.92;;;26.58;;
49824;SDS011;35714;55.708;37.478;2022-08-21T01:46:23;42.15;;;27.92;;
49824;SDS011;35714;55.708;37.478;2022-08-21T01:48:49;38.25;;;27.20;;
49824;SDS011;35714;55.708;37.478;2022-08-21T01:51:14;40.78;;;27.13;;
49824;SDS011;35714;55.708;37.478;2022-08-21T01:53:40;39.50;;;26.13;;
49824;SDS011;35714;55.708;37.478;2022-08-21T01:56:07;35.60;;;24.80;;
49824;SDS011;35714;55.708;37.478;2022-08-21T01:58:33;42.50;;;26.00;;
49824;SDS011;35714;55.708;37.478;2022-08-21T02:00:59;40.72;;;24.70;;
49824;SDS011;35714;55.708;37.478;2022-08-21T02:03:26;38.15;;;25.73;;
49824;SDS011;35714;55.708;37.478;2022-08-21T02:05:51;37.20;;;24.50;;
49824;SDS011;35714;55.708;37.478;2022-08-21T02:08:17;40.10;;;22.98;;
49824;SDS011;35714;55.708;37.478;2022-08-21T02:10:42;42.22;;;23.98;;
49824;SDS011;35714;55.708;37.478;2022-08-21T02:13:09;33.95;;;21.90;;
49824;SDS011;35714;55.708;37.478;2022-08-21T02:15:34;36.80;;;23.25;;
49824;SDS011;35714;55.708;37.478;2022-08-21T02:18:01;34.63;;;22.88;;
49824;SDS011;35714;55.708;37.478;2022-08-21T02:20:31;35.42;;;22.48;;
49824;SDS011;35714;55.708;37.478;2022-08-21T02:22:57;36.17;;;23.33;;
49824;SDS011;35714;55.708;37.478;2022-08-21T02:25:24;32.72;;;20.13;;
49824;SDS011;35714;55.708;37.478;2022-08-21T02:27:50;32.55;;;20.25;;
49824;SDS011;35714;55.708;37.478;2022-08-21T02:30:18;36.38;;;20.92;;
49824;SDS011;35714;55.708;37.478;2022-08-21T02:32:44;32.03;;;20.65;;
49824;SDS011;35714;55.708;37.478;2022-08-21T02:35:10;31.27;;;21.25;;
49824;SDS011;35714;55.708;37.478;2022-08-21T02:37:47;38.28;;;22.77;;
49824;SDS011;35714;55.708;37.478;2022-08-21T02:40:13;35.10;;;21.70;;
49824;SDS011;35714;55.708;37.478;2022-08-21T02:42:39;30.20;;;20.67;;
49824;SDS011;35714;55.708;37.478;2022-08-21T02:45:05;36.25;;;21.92;;
49824;SDS011;35714;55.708;37.478;2022-08-21T02:47:31;32.65;;;21.50;;
49824;SDS011;35714;55.708;37.478;2022-08-21T02:49:58;39.28;;;22.42;;
49824;SDS011;35714;55.708;37.478;2022-08-21T02:52:23;36.38;;;22.35;;
49824;SDS011;35714;55.708;37.478;2022-08-21T02:54:49;34.92;;;20.92;;
49824;SDS011;35714;55.708;37.478;2022-08-21T02:57:15;35.20;;;19.95;;
49824;SDS011;35714;55.708;37.478;2022-08-21T02:59:40;29.95;;;19.73;;
49824;SDS011;35714;55.708;37.478;2022-08-21T03:02:06;28.23;;;18.95;;
49824;SDS011;35714;55.708;37.478;2022-08-21T03:04:32;32.78;;;21.95;;
49824;SDS011;35714;55.708;37.478;2022-08-21T03:06:57;32.00;;;21.08;;
49824;SDS011;35714;55.708;37.478;2022-08-21T03:09:23;29.75;;;20.13;;
49824;SDS011;35714;55.708;37.478;2022-08-21T03:11:49;33.45;;;20.20;;
49824;SDS011;35714;55.708;37.478;2022-08-21T03:14:16;30.73;;;20.52;;
49824;SDS011;35714;55.708;37.478;2022-08-21T03:16:42;34.90;;;20.10;;
49824;SDS011;35714;55.708;37.478;2022-08-21T03:19:07;32.38;;;19.58;;
49824;SDS011;35714;55.708;37.478;2022-08-21T03:21:33;35.47;;;21.33;;
49824;SDS011;35714;55.708;37.478;2022-08-21T03:23:58;34.17;;;19.90;;
49824;SDS011;35714;55.708;37.478;2022-08-21T03:26:24;33.20;;;20.10;;
49824;SDS011;35714;55.708;37.478;2022-08-21T03:28:50;27.35;;;18.27;;
49824;SDS011;35714;55.708;37.478;2022-08-21T03:31:16;28.30;;;18.08;;
49824;SDS011;35714;55.708;37.478;2022-08-21T03:33:42;30.35;;;18.58;;
49824;SDS011;35714;55.708;37.478;2022-08-21T03:36:08;33.15;;;19.88;;
49824;SDS011;35714;55.708;37.478;2022-08-21T03:38:35;31.35;;;18.67;;
49824;SDS011;35714;55.708;37.478;2022-08-21T03:41:01;29.83;;;19.55;;
49824;SDS011;35714;55.708;37.478;2022-08-21T03:43:27;29.00;;;19.23;;
49824;SDS011;35714;55.708;37.478;2022-08-21T03:45:53;27.98;;;17.10;;
49824;SDS011;35714;55.708;37.478;2022-08-21T03:48:19;33.00;;;20.27;;
49824;SDS011;35714;55.708;37.478;2022-08-21T03:50:44;29.75;;;18.33;;
49824;SDS011;35714;55.708;37.478;2022-08-21T03:53:13;31.88;;;19.08;;
49824;SDS011;35714;55.708;37.478;2022-08-21T03:55:39;29.85;;;17.83;;
49824;SDS011;35714;55.708;37.478;2022-08-21T03:58:04;26.83;;;18.33;;
49824;SDS011;35714;55.708;37.478;2022-08-21T04:00:30;30.08;;;18.75;;
49824;SDS011;35714;55.708;37.478;2022-08-21T04:02:56;29.52;;;19.08;;
49824;SDS011;35714;55.708;37.478;2022-08-21T04:05:21;32.95;;;19.38;;
49824;SDS011;35714;55.708;37.478;2022-08-21T04:07:54;29.13;;;18.90;;
49824;SDS011;35714;55.708;37.478;2022-08-21T04:10:19;29.77;;;18.83;;
49824;SDS011;35714;55.708;37.478;2022-08-21T04:12:45;35.75;;;19.27;;
49824;SDS011;35714;55.708;37.478;2022-08-21T04:15:10;25.20;;;16.20;;
49824;SDS011;35714;55.708;37.478;2022-08-21T04:17:36;28.35;;;17.75;;
49824;SDS011;35714;55.708;37.478;2022-08-21T04:20:01;34.78;;;20.20;;
49824;SDS011;35714;55.708;37.478;2022-08-21T04:22:28;34.08;;;19.05;;
49824;SDS011;35714;55.708;37.478;2022-08-21T04:24:53;24.95;;;17.83;;
49824;SDS011;35714;55.708;37.478;2022-08-21T04:27:19;28.35;;;18.90;;
49824;SDS011;35714;55.708;37.478;2022-08-21T04:29:45;33.38;;;17.40;;
49824;SDS011;35714;55.708;37.478;2022-08-21T04:32:10;29.70;;;19.20;;
49824;SDS011;35714;55.708;37.478;2022-08-21T04:34:36;27.17;;;17.60;;
49824;SDS011;35714;55.708;37.478;2022-08-21T04:37:01;32.70;;;19.15;;
49824;SDS011;35714;55.708;37.478;2022-08-21T04:39:27;26.33;;;18.25;;
49824;SDS011;35714;55.708;37.478;2022-08-21T04:41:52;29.20;;;19.08;;
49824;SDS011;35714;55.708;37.478;2022-08-21T04:44:18;29.65;;;18.35;;
49824;SDS011;35714;55.708;37.478;2022-08-21T04:46:43;29.30;;;19.05;;
49824;SDS011;35714;55.708;37.478;2022-08-21T04:49:09;27.95;;;19.08;;
49824;SDS011;35714;55.708;37.478;2022-08-21T04:51:35;30.60;;;19.45;;
49824;SDS011;35714;55.708;37.478;2022-08-21T04:54:10;29.25;;;19.45;;
49824;SDS011;35714;55.708;37.478;2022-08-21T04:56:39;29.98;;;20.20;;
49824;SDS011;35714;55.708;37.478;2022-08-21T04:59:10;32.55;;;21.75;;
49824;SDS011;35714;55.708;37.478;2022-08-21T05:01:36;34.97;;;21.88;;
49824;SDS011;35714;55.708;37.478;2022-08-21T05:04:03;30.35;;;19.80;;
49824;SDS011;35714;55.708;37.478;2022-08-21T05:06:30;34.55;;;21.58;;
49824;SDS011;35714;55.708;37.478;2022-08-21T05:08:56;37.17;;;22.33;;
49824;SDS011;35714;55.708;37.478;2022-08-21T05:11:22;33.03;;;22.58;;
49824;SDS011;35714;55.708;37.478;2022-08-21T05:13:48;38.80;;;22.52;;
49824;SDS011;35714;55.708;37.478;2022-08-21T05:16:14;30.50;;;21.42;;
49824;SDS011;35714;55.708;37.478;2022-08-21T05:18:41;39.33;;;22.60;;
49824;SDS011;35714;55.708;37.478;2022-08-21T05:21:06;40.40;;;25.27;;
49824;SDS011;35714;55.708;37.478;2022-08-21T05:23:32;42.20;;;26.90;;
49824;SDS011;35714;55.708;37.478;2022-08-21T05:25:57;43.95;;;28.33;;
49824;SDS011;35714;55.708;37.478;2022-08-21T05:28:23;36.05;;;25.15;;
49824;SDS011;35714;55.708;37.478;2022-08-21T05:30:49;42.20;;;27.17;;
49824;SDS011;35714;55.708;37.478;2022-08-21T05:33:14;40.53;;;27.75;;
49824;SDS011;35714;55.708;37.478;2022-08-21T05:35:40;39.30;;;26.65;;
49824;SDS011;35714;55.708;37.478;2022-08-21T05:38:06;36.85;;;26.52;;
49824;SDS011;35714;55.708;37.478;2022-08-21T05:40:31;38.20;;;25.45;;
49824;SDS011;35714;55.708;37.478;2022-08-21T05:42:57;37.17;;;24.90;;
49824;SDS011;35714;55.708;37.478;2022-08-21T05:45:28;37.60;;;25.73;;
49824;SDS011;35714;55.708;37.478;2022-08-21T05:47:54;36.33;;;26.20;;
49824;SDS011;35714;55.708;37.478;2022-08-21T05:50:20;43.88;;;27.30;;
49824;SDS011;35714;55.708;37.478;2022-08-21T05:52:45;45.35;;;27.83;;
49824;SDS011;35714;55.708;37.478;2022-08-21T05:55:11;41.75;;;27.15;;
49824;SDS011;35714;55.708;37.478;2022-08-21T05:57:37;40.40;;;26.88;;
49824;SDS011;35714;55.708;37.478;2022-08-21T06:00:06;34.63;;;23.75;;
49824;SDS011;35714;55.708;37.478;2022-08-21T06:02:39;40.17;;;25.17;;
49824;SDS011;35714;55.708;37.478;2022-08-21T06:05:05;35.33;;;24.88;;
49824;SDS011;35714;55.708;37.478;2022-08-21T06:07:30;38.80;;;25.45;;
49824;SDS011;35714;55.708;37.478;2022-08-21T06:09:56;37.80;;;23.45;;
49824;SDS011;35714;55.708;37.478;2022-08-21T06:12:21;32.85;;;23.40;;
49824;SDS011;35714;55.708;37.478;2022-08-21T06:14:47;35.78;;;24.45;;
49824;SDS011;35714;55.708;37.478;2022-08-21T06:17:12;33.55;;;24.38;;
49824;SDS011;35714;55.708;37.478;2022-08-21T06:19:40;35.47;;;24.00;;
49824;SDS011;35714;55.708;37.478;2022-08-21T06:22:05;36.28;;;24.55;;
49824;SDS011;35714;55.708;37.478;2022-08-21T06:24:31;36.80;;;23.27;;
49824;SDS011;35714;55.708;37.478;2022-08-21T06:26:56;34.15;;;22.67;;
49824;SDS011;35714;55.708;37.478;2022-08-21T06:29:22;36.10;;;24.48;;
49824;SDS011;35714;55.708;37.478;2022-08-21T06:31:48;39.15;;;23.55;;
49824;SDS011;35714;55.708;37.478;2022-08-21T06:34:14;36.22;;;24.95;;
49824;SDS011;35714;55.708;37.478;2022-08-21T06:36:40;34.63;;;22.80;;
49824;SDS011;35714;55.708;37.478;2022-08-21T06:39:05;36.97;;;23.25;;
49824;SDS011;35714;55.708;37.478;2022-08-21T06:41:31;37.47;;;22.02;;
49824;SDS011;35714;55.708;37.478;2022-08-21T06:43:57;32.28;;;22.15;;
49824;SDS011;35714;55.708;37.478;2022-08-21T06:46:23;32.97;;;23.77;;
49824;SDS011;35714;55.708;37.478;2022-08-21T06:48:49;31.27;;;21.75;;
49824;SDS011;35714;55.708;37.478;2022-08-21T06:51:15;36.38;;;23.10;;
49824;SDS011;35714;55.708;37.478;2022-08-21T06:53:41;34.17;;;21.50;;
49824;SDS011;35714;55.708;37.478;2022-08-21T06:56:06;35.40;;;22.80;;
49824;SDS011;35714;55.708;37.478;2022-08-21T06:58:32;35.00;;;22.65;;
49824;SDS011;35714;55.708;37.478;2022-08-21T07:00:57;31.92;;;21.90;;
49824;SDS011;35714;55.708;37.478;2022-08-21T07:03:25;33.88;;;23.35;;
49824;SDS011;35714;55.708;37.478;2022-08-21T07:05:52;28.33;;;21.05;;
49824;SDS011;35714;55.708;37.478;2022-08-21T07:08:18;42.30;;;27.38;;
49824;SDS011;35714;55.708;37.478;2022-08-21T07:10:44;30.45;;;23.00;;
49824;SDS011;35714;55.708;37.478;2022-08-21T07:13:11;36.80;;;24.80;;
49824;SDS011;35714;55.708;37.478;2022-08-21T07:15:36;31.45;;;22.35;;
49824;SDS011;35714;55.708;37.478;2022-08-21T07:18:02;28.75;;;21.67;;
49824;SDS011;35714;55.708;37.478;2022-08-21T07:20:28;27.77;;;21.23;;
49824;SDS011;35714;55.708;37.478;2022-08-21T07:22:55;29.27;;;20.80;;
49824;SDS011;35714;55.708;37.478;2022-08-21T07:25:21;31.20;;;21.77;;
49824;SDS011;35714;55.708;37.478;2022-08-21T07:27:46;25.80;;;19.38;;
49824;SDS011;35714;55.708;37.478;2022-08-21T07:30:12;29.00;;;21.15;;
49824;SDS011;35714;55.708;37.478;2022-08-21T07:32:37;29.15;;;18.95;;
49824;SDS011;35714;55.708;37.478;2022-08-21T07:35:03;26.40;;;18.52;;
49824;SDS011;35714;55.708;37.478;2022-08-21T07:37:29;25.75;;;18.58;;
49824;SDS011;35714;55.708;37.478;2022-08-21T07:39:54;29.63;;;19.05;;
49824;SDS011;35714;55.708;37.478;2022-08-21T07:42:21;23.80;;;17.95;;
49824;SDS011;35714;55.708;37.478;2022-08-21T07:44:46;31.25;;;18.42;;
49824;SDS011;35714;55.708;37.478;2022-08-21T07:47:12;24.45;;;18.85;;
49824;SDS011;35714;55.708;37.478;2022-08-21T07:49:37;29.98;;;18.38;;
49824;SDS011;35714;55.708;37.478;2022-08-21T07:52:03;28.50;;;19.35;;
49824;SDS011;35714;55.708;37.478;2022-08-21T07:54:29;24.90;;;17.92;;
49824;SDS011;35714;55.708;37.478;2022-08-21T07:56:54;24.35;;;18.42;;
49824;SDS011;35714;55.708;37.478;2022-08-21T07:59:20;23.20;;;17.90;;
49824;SDS011;35714;55.708;37.478;2022-08-21T08:01:46;25.25;;;18.50;;
49824;SDS011;35714;55.708;37.478;2022-08-21T08:04:12;28.15;;;18.25;;
49824;SDS011;35714;55.708;37.478;2022-08-21T08:06:37;26.63;;;18.73;;
49824;SDS011;35714;55.708;37.478;2022-08-21T08:09:03;27.02;;;20.20;;
49824;SDS011;35714;55.708;37.478;2022-08-21T08:11:29;27.58;;;19.48;;
49824;SDS011;35714;55.708;37.478;2022-08-21T08:13:55;25.48;;;17.85;;
49824;SDS011;35714;55.708;37.478;2022-08-21T08:16:22;28.85;;;17.98;;
49824;SDS011;35714;55.708;37.478;2022-08-21T08:18:48;25.95;;;17.88;;
49824;SDS011;35714;55.708;37.478;2022-08-21T08:21:14;23.50;;;16.65;;
49824;SDS011;35714;55.708;37.478;2022-08-21T08:23:40;26.48;;;15.93;;
49824;SDS011;35714;55.708;37.478;2022-08-21T08:26:05;24.73;;;16.17;;
49824;SDS011;35714;55.708;37.478;2022-08-21T08:28:32;22.45;;;15.88;;
49824;SDS011;35714;55.708;37.478;2022-08-21T08:30:58;21.30;;;16.23;;
49824;SDS011;35714;55.708;37.478;2022-08-21T08:33:24;26.92;;;19.15;;
49824;SDS011;35714;55.708;37.478;2022-08-21T08:35:50;32.33;;;18.10;;
49824;SDS011;35714;55.708;37.478;2022-08-21T08:38:16;27.80;;;17.50;;
49824;SDS011;35714;55.708;37.478;2022-08-21T08:43:10;28.20;;;18.67;;
49824;SDS011;35714;55.708;37.478;2022-08-21T08:45:37;23.70;;;16.73;;
49824;SDS011;35714;55.708;37.478;2022-08-21T08:48:05;25.60;;;18.17;;
49824;SDS011;35714;55.708;37.478;2022-08-21T08:53:08;25.02;;;16.15;;
49824;SDS011;35714;55.708;37.478;2022-08-21T08:55:37;23.33;;;16.42;;
49824;SDS011;35714;55.708;37.478;2022-08-21T08:58:04;22.50;;;15.80;;
49824;SDS011;35714;55.708;37.478;2022-08-21T09:00:30;19.73;;;14.55;;
49824;SDS011;35714;55.708;37.478;2022-08-21T09:02:56;20.13;;;14.15;;
49824;SDS011;35714;55.708;37.478;2022-08-21T09:05:28;20.60;;;14.52;;
49824;SDS011;35714;55.708;37.478;2022-08-21T09:21:12;21.13;;;13.00;;
49824;SDS011;35714;55.708;37.478;2022-08-21T09:23:50;20.58;;;12.77;;
49824;SDS011;35714;55.708;37.478;2022-08-21T09:26:18;19.63;;;12.90;;
49824;SDS011;35714;55.708;37.478;2022-08-21T09:28:44;17.77;;;12.75;;
49824;SDS011;35714;55.708;37.478;2022-08-21T09:31:31;22.17;;;12.25;;
49824;SDS011;35714;55.708;37.478;2022-08-21T09:33:59;23.27;;;13.68;;
49824;SDS011;35714;55.708;37.478;2022-08-21T09:36:25;20.02;;;12.32;;
49824;SDS011;35714;55.708;37.478;2022-08-21T09:38:55;18.83;;;12.52;;
49824;SDS011;35714;55.708;37.478;2022-08-21T09:41:26;19.50;;;12.25;;
49824;SDS011;35714;55.708;37.478;2022-08-21T09:43:53;19.10;;;13.30;;
49824;SDS011;35714;55.708;37.478;2022-08-21T09:46:23;20.00;;;11.75;;
49824;SDS011;35714;55.708;37.478;2022-08-21T09:48:50;20.42;;;11.75;;
49824;SDS011;35714;55.708;37.478;2022-08-21T09:51:17;18.90;;;9.43;;
49824;SDS011;35714;55.708;37.478;2022-08-21T09:53:47;16.63;;;10.07;;
49824;SDS011;35714;55.708;37.478;2022-08-21T09:56:21;18.38;;;9.85;;
49824;SDS011;35714;55.708;37.478;2022-08-21T09:59:16;15.85;;;9.55;;
49824;SDS011;35714;55.708;37.478;2022-08-21T10:01:43;14.48;;;8.52;;
49824;SDS011;35714;55.708;37.478;2022-08-21T10:04:12;12.80;;;7.28;;
49824;SDS011;35714;55.708;37.478;2022-08-21T10:06:38;13.93;;;7.65;;
49824;SDS011;35714;55.708;37.478;2022-08-21T10:09:09;14.65;;;8.85;;
49824;SDS011;35714;55.708;37.478;2022-08-21T10:11:35;15.77;;;7.72;;
49824;SDS011;35714;55.708;37.478;2022-08-21T10:14:13;13.98;;;5.90;;
49824;SDS011;35714;55.708;37.478;2022-08-21T10:16:55;12.82;;;6.38;;
49824;SDS011;35714;55.708;37.478;2022-08-21T10:20:07;12.30;;;6.53;;
49824;SDS011;35714;55.708;37.478;2022-08-21T10:24:43;9.23;;;5.90;;
49824;SDS011;35714;55.708;37.478;2022-08-21T10:27:14;12.63;;;6.90;;
49824;SDS011;35714;55.708;37.478;2022-08-21T10:44:45;16.35;;;8.20;;
49824;SDS011;35714;55.708;37.478;2022-08-21T10:47:24;11.75;;;7.25;;
49824;SDS011;35714;55.708;37.478;2022-08-21T11:00:05;9.80;;;5.05;;
49824;SDS011;35714;55.708;37.478;2022-08-21T11:05:14;11.52;;;3.95;;
49824;SDS011;35714;55.708;37.478;2022-08-21T11:10:15;9.88;;;3.70;;
49824;SDS011;35714;55.708;37.478;2022-08-21T11:12:44;12.43;;;3.38;;
49824;SDS011;35714;55.708;37.478;2022-08-21T11:17:52;6.80;;;2.83;;
49824;SDS011;35714;55.708;37.478;2022-08-21T11:20:38;9.57;;;2.88;;
49824;SDS011;35714;55.708;37.478;2022-08-21T11:23:19;11.93;;;3.63;;
49824;SDS011;35714;55.708;37.478;2022-08-21T11:25:47;11.82;;;2.88;;
49824;SDS011;35714;55.708;37.478;2022-08-21T11:28:24;8.55;;;2.65;;
49824;SDS011;35714;55.708;37.478;2022-08-21T11:31:11;7.63;;;3.00;;
49824;SDS011;35714;55.708;37.478;2022-08-21T11:38:55;8.98;;;3.97;;
49824;SDS011;35714;55.708;37.478;2022-08-21T11:41:36;11.50;;;3.67;;
49824;SDS011;35714;55.708;37.478;2022-08-21T11:46:40;10.90;;;3.92;;
49824;SDS011;35714;55.708;37.478;2022-08-21T11:52:29;11.80;;;4.55;;
49824;SDS011;35714;55.708;37.478;2022-08-21T11:54:39;19.80;;;5.22;;
49824;SDS011;35714;55.708;37.478;2022-08-21T11:57:17;10.43;;;5.32;;
49824;SDS011;35714;55.708;37.478;2022-08-21T11:59:55;16.83;;;5.47;;
49824;SDS011;35714;55.708;37.478;2022-08-21T12:02:27;11.63;;;5.32;;
49824;SDS011;35714;55.708;37.478;2022-08-21T12:04:55;11.57;;;6.50;;
49824;SDS011;35714;55.708;37.478;2022-08-21T12:10:00;13.98;;;8.68;;
49824;SDS011;35714;55.708;37.478;2022-08-21T12:12:27;22.00;;;10.30;;
49824;SDS011;35714;55.708;37.478;2022-08-21T12:17:56;18.77;;;10.05;;
49824;SDS011;35714;55.708;37.478;2022-08-21T12:20:26;17.50;;;9.70;;
49824;SDS011;35714;55.708;37.478;2022-08-21T12:23:16;17.50;;;10.25;;
49824;SDS011;35714;55.708;37.478;2022-08-21T12:26:09;20.80;;;9.82;;
49824;SDS011;35714;55.708;37.478;2022-08-21T12:28:28;20.67;;;10.32;;
49824;SDS011;35714;55.708;37.478;2022-08-21T12:30:55;15.38;;;9.40;;
49824;SDS011;35714;55.708;37.478;2022-08-21T12:36:03;16.98;;;6.57;;
49824;SDS011;35714;55.708;37.478;2022-08-21T12:41:03;12.02;;;6.13;;
49824;SDS011;35714;55.708;37.478;2022-08-21T12:45:56;8.90;;;4.43;;
49824;SDS011;35714;55.708;37.478;2022-08-21T12:50:54;12.25;;;4.30;;
49824;SDS011;35714;55.708;37.478;2022-08-21T12:56:09;16.35;;;3.92;;
49824;SDS011;35714;55.708;37.478;2022-08-21T12:58:35;7.20;;;3.40;;
49824;SDS011;35714;55.708;37.478;2022-08-21T13:01:03;11.43;;;2.63;;
49824;SDS011;35714;55.708;37.478;2022-08-21T13:03:30;8.20;;;3.10;;
49824;SDS011;35714;55.708;37.478;2022-08-21T13:05:57;9.93;;;3.05;;
49824;SDS011;35714;55.708;37.478;2022-08-21T13:08:23;5.53;;;2.55;;
49824;SDS011;35714;55.708;37.478;2022-08-21T13:10:55;9.65;;;2.13;;
49824;SDS011;35714;55.708;37.478;2022-08-21T13:13:22;14.80;;;2.40;;
49824;SDS011;35714;55.708;37.478;2022-08-21T13:15:49;7.40;;;2.90;;
49824;SDS011;35714;55.708;37.478;2022-08-21T13:18:22;10.63;;;2.70;;
49824;SDS011;35714;55.708;37.478;2022-08-21T13:20:48;11.60;;;3.35;;
49824;SDS011;35714;55.708;37.478;2022-08-21T13:23:23;11.48;;;3.42;;
49824;SDS011;35714;55.708;37.478;2022-08-21T13:28:35;12.70;;;3.50;;
49824;SDS011;35714;55.708;37.478;2022-08-21T13:31:05;15.02;;;5.00;;
49824;SDS011;35714;55.708;37.478;2022-08-21T13:33:31;8.05;;;3.83;;
49824;SDS011;35714;55.708;37.478;2022-08-21T13:36:03;7.45;;;3.30;;
49824;SDS011;35714;55.708;37.478;2022-08-21T13:38:30;10.90;;;3.83;;
49824;SDS011;35714;55.708;37.478;2022-08-21T13:40:58;11.55;;;3.20;;
49824;SDS011;35714;55.708;37.478;2022-08-21T13:43:30;12.18;;;3.75;;
49824;SDS011;35714;55.708;37.478;2022-08-21T13:45:56;15.85;;;3.15;;
49824;SDS011;35714;55.708;37.478;2022-08-21T13:48:25;15.98;;;3.42;;
49824;SDS011;35714;55.708;37.478;2022-08-21T13:50:51;8.50;;;3.47;;
49824;SDS011;35714;55.708;37.478;2022-08-21T13:53:31;12.98;;;3.45;;
49824;SDS011;35714;55.708;37.478;2022-08-21T13:55:58;16.50;;;2.70;;
49824;SDS011;35714;55.708;37.478;2022-08-21T13:58:46;11.85;;;3.03;;
49824;SDS011;35714;55.708;37.478;2022-08-21T14:01:26;10.60;;;2.80;;
49824;SDS011;35714;55.708;37.478;2022-08-21T14:03:53;19.15;;;3.22;;
49824;SDS011;35714;55.708;37.478;2022-08-21T14:06:23;9.57;;;3.20;;
49824;SDS011;35714;55.708;37.478;2022-08-21T14:08:51;11.68;;;2.95;;
49824;SDS011;35714;55.708;37.478;2022-08-21T14:11:18;10.45;;;3.00;;
49824;SDS011;35714;55.708;37.478;2022-08-21T14:13:45;16.02;;;3.45;;
49824;SDS011;35714;55.708;37.478;2022-08-21T14:16:12;11.98;;;2.97;;
49824;SDS011;35714;55.708;37.478;2022-08-21T14:18:45;8.13;;;3.97;;
49824;SDS011;35714;55.708;37.478;2022-08-21T14:21:11;16.27;;;3.55;;
49824;SDS011;35714;55.708;37.478;2022-08-21T14:23:38;11.63;;;3.60;;
49824;SDS011;35714;55.708;37.478;2022-08-21T14:26:05;10.30;;;3.70;;
49824;SDS011;35714;55.708;37.478;2022-08-21T14:30:57;18.17;;;5.85;;
49824;SDS011;35714;55.708;37.478;2022-08-21T14:33:28;15.00;;;5.70;;
49824;SDS011;35714;55.708;37.478;2022-08-21T14:35:54;12.13;;;5.95;;
49824;SDS011;35714;55.708;37.478;2022-08-21T14:38:21;12.68;;;6.22;;
49824;SDS011;35714;55.708;37.478;2022-08-21T14:40:48;15.25;;;5.40;;
49824;SDS011;35714;55.708;37.478;2022-08-21T14:43:15;13.13;;;5.35;;
49824;SDS011;35714;55.708;37.478;2022-08-21T14:45:40;11.48;;;4.80;;
49824;SDS011;35714;55.708;37.478;2022-08-21T14:48:06;12.88;;;4.63;;
49824;SDS011;35714;55.708;37.478;2022-08-21T14:50:32;11.38;;;4.75;;
49824;SDS011;35714;55.708;37.478;2022-08-21T14:52:58;11.05;;;4.43;;
49824;SDS011;35714;55.708;37.478;2022-08-21T14:55:23;7.95;;;3.80;;
49824;SDS011;35714;55.708;37.478;2022-08-21T14:57:50;12.48;;;4.40;;
49824;SDS011;35714;55.708;37.478;2022-08-21T15:00:18;12.35;;;4.20;;
49824;SDS011;35714;55.708;37.478;2022-08-21T15:02:45;13.65;;;4.15;;
49824;SDS011;35714;55.708;37.478;2022-08-21T15:05:11;12.85;;;5.18;;
49824;SDS011;35714;55.708;37.478;2022-08-21T15:07:36;10.63;;;4.25;;
49824;SDS011;35714;55.708;37.478;2022-08-21T15:10:03;7.68;;;3.67;;
49824;SDS011;35714;55.708;37.478;2022-08-21T15:12:30;9.27;;;3.05;;
49824;SDS011;35714;55.708;37.478;2022-08-21T15:14:56;9.48;;;3.20;;
49824;SDS011;35714;55.708;37.478;2022-08-21T15:17:21;10.35;;;3.65;;
49824;SDS011;35714;55.708;37.478;2022-08-21T15:19:47;10.20;;;2.88;;
49824;SDS011;35714;55.708;37.478;2022-08-21T15:22:13;12.73;;;2.83;;
49824;SDS011;35714;55.708;37.478;2022-08-21T15:24:38;5.10;;;2.53;;
49824;SDS011;35714;55.708;37.478;2022-08-21T15:27:04;9.73;;;2.55;;
49824;SDS011;35714;55.708;37.478;2022-08-21T15:29:31;7.72;;;2.15;;
49824;SDS011;35714;55.708;37.478;2022-08-21T15:32:00;7.07;;;2.22;;
49824;SDS011;35714;55.708;37.478;2022-08-21T15:34:27;11.25;;;2.45;;
49824;SDS011;35714;55.708;37.478;2022-08-21T15:36:54;6.20;;;1.83;;
49824;SDS011;35714;55.708;37.478;2022-08-21T15:39:19;7.60;;;2.28;;
49824;SDS011;35714;55.708;37.478;2022-08-21T15:41:45;7.13;;;2.40;;
49824;SDS011;35714;55.708;37.478;2022-08-21T15:44:11;9.95;;;2.33;;
49824;SDS011;35714;55.708;37.478;2022-08-21T15:46:38;8.02;;;1.77;;